Terminal Aerodrome Forecast
Issued by NWS

Home | Current Version | Previous Version | Text Only | Print | Product List | Glossary On
Versions: 1 2 3 4 5 6 7 8 9 10 11 12 13 14 15 16 17
653
FTUS45 KTFX 180520
TAFBZN
TAF
KBZN 180520Z 1806/1912 VRB04KT P6SM FEW120 SCT200
     FM190000 VRB05KT P6SM -RA SCT070 BKN090
     FM190600 VRB04KT 1 1/2SM RASN BKN025 OVC045=

USA.gov is the U.S. government's official web portal to all federal, state and local government web resources and services.